createdAt,value
2023-03-26T00:02:05.070Z,8.41
2023-03-26T00:04:34.669Z,8.41
2023-03-26T00:07:03.258Z,8.43
2023-03-26T00:09:31.319Z,8.46
2023-03-26T00:11:59.390Z,8.46
2023-03-26T00:14:27.302Z,8.46
2023-03-26T00:16:55.259Z,8.47
2023-03-26T00:19:23.502Z,8.46
2023-03-26T00:21:52.697Z,8.46
2023-03-26T00:24:20.764Z,8.44
2023-03-26T00:26:53.437Z,8.42
2023-03-26T00:29:28.141Z,8.39
2023-03-26T00:31:56.250Z,8.37
2023-03-26T00:34:25.031Z,8.37
2023-03-26T00:36:56.173Z,8.36
2023-03-26T00:39:24.239Z,8.36
2023-03-26T00:41:54.909Z,8.35
2023-03-26T00:44:23.579Z,8.34
2023-03-26T00:46:51.736Z,8.33
2023-03-26T00:49:20.229Z,8.34
2023-03-26T00:51:48.290Z,8.35
2023-03-26T00:54:16.670Z,8.33
2023-03-26T00:56:45.451Z,8.31
2023-03-26T00:59:13.522Z,8.28
2023-03-26T01:01:41.776Z,8.25
2023-03-26T01:04:34.953Z,8.24
2023-03-26T01:07:11.949Z,8.21
2023-03-26T01:09:50.570Z,8.19
2023-03-26T01:12:24.355Z,8.19
2023-03-26T01:14:56.828Z,8.20
2023-03-26T01:17:24.946Z,8.23
2023-03-26T01:20:13.757Z,8.26
2023-03-26T01:22:54.012Z,8.26
2023-03-26T01:25:25.518Z,8.27
2023-03-26T01:27:57.234Z,8.30
2023-03-26T01:30:25.133Z,8.31
2023-03-26T01:32:53.270Z,8.33
2023-03-26T01:36:09.621Z,8.34
2023-03-26T01:38:40.913Z,8.31
2023-03-26T01:41:10.986Z,8.33
2023-03-26T01:43:45.863Z,8.34
2023-03-26T01:46:16.388Z,8.35
2023-03-26T01:48:46.912Z,8.33
2023-03-26T01:51:26.861Z,8.34
2023-03-26T01:53:57.177Z,8.36
2023-03-26T01:56:51.197Z,8.40
2023-03-26T01:59:34.567Z,8.39
2023-03-26T02:02:34.720Z,8.38
2023-03-26T02:05:05.647Z,8.35
2023-03-26T02:08:22.867Z,8.35
2023-03-26T02:10:57.699Z,8.32
2023-03-26T02:13:26.819Z,8.34
2023-03-26T02:16:03.574Z,8.35
2023-03-26T02:18:39.173Z,8.37
2023-03-26T02:21:12.442Z,8.39
2023-03-26T02:23:47.224Z,8.40
2023-03-26T02:26:18.797Z,8.38
2023-03-26T02:29:10.162Z,8.35
2023-03-26T02:31:39.311Z,8.37
2023-03-26T02:34:07.404Z,8.39
2023-03-26T02:36:37.059Z,8.42
2023-03-26T02:39:05.962Z,8.43
2023-03-26T02:41:38.183Z,8.43
2023-03-26T02:44:09.578Z,8.41
2023-03-26T02:46:58.040Z,8.40
2023-03-26T02:49:58.663Z,8.37
2023-03-26T02:52:49.916Z,8.37
2023-03-26T02:55:18.251Z,8.39
2023-03-26T02:57:47.238Z,8.42
2023-03-26T03:00:23.001Z,8.43
2023-03-26T03:03:26.982Z,8.41
2023-03-26T03:05:58.349Z,8.41
2023-03-26T03:08:34.166Z,8.43
2023-03-26T03:11:11.393Z,8.44
2023-03-26T03:13:49.304Z,8.46
2023-03-26T03:16:20.967Z,8.48
2023-03-26T03:18:57.835Z,8.49
2023-03-26T03:21:30.119Z,8.47
2023-03-26T03:24:00.150Z,8.47
2023-03-26T03:26:30.877Z,8.48
2023-03-26T03:29:02.819Z,8.49
2023-03-26T03:31:31.037Z,8.50
2023-03-26T03:34:03.056Z,8.47
2023-03-26T03:36:33.687Z,8.48
2023-03-26T03:39:14.686Z,8.42
2023-03-26T03:41:42.931Z,8.39
2023-03-26T03:44:13.653Z,8.41
2023-03-26T03:46:41.753Z,8.43
2023-03-26T03:49:09.906Z,8.45
2023-03-26T03:51:38.585Z,8.45
2023-03-26T03:54:14.753Z,8.47
2023-03-26T03:56:49.309Z,8.47
2023-03-26T03:59:35.845Z,8.46
2023-03-26T04:02:06.499Z,8.48
2023-03-26T04:04:40.269Z,8.49
2023-03-26T04:07:12.177Z,8.49
2023-03-26T04:10:10.069Z,8.46
2023-03-26T04:12:58.586Z,8.46
2023-03-26T04:15:40.397Z,8.46
2023-03-26T04:18:12.440Z,8.46
2023-03-26T04:20:47.898Z,8.45
2023-03-26T04:23:23.938Z,8.45
2023-03-26T04:26:04.111Z,8.45
2023-03-26T04:28:56.152Z,8.41
2023-03-26T04:31:31.654Z,8.38
2023-03-26T04:34:18.605Z,8.37
2023-03-26T04:37:07.548Z,8.33
2023-03-26T04:39:39.811Z,8.34
2023-03-26T04:42:41.722Z,8.32
2023-03-26T04:45:22.906Z,8.31
2023-03-26T04:47:58.465Z,8.35
2023-03-26T04:50:27.158Z,8.36
2023-03-26T04:52:57.523Z,8.37
2023-03-26T04:55:46.777Z,8.38
2023-03-26T04:58:20.578Z,8.35
2023-03-26T05:01:10.262Z,8.33
2023-03-26T05:03:41.550Z,8.33
2023-03-26T05:06:13.583Z,8.33
2023-03-26T05:08:42.083Z,8.34
2023-03-26T05:11:12.424Z,8.34
2023-03-26T05:13:43.015Z,8.37
2023-03-26T05:16:13.347Z,8.38
2023-03-26T05:18:46.918Z,8.39
2023-03-26T05:21:15.698Z,8.37
2023-03-26T05:23:44.110Z,8.39
2023-03-26T05:26:20.646Z,8.38
2023-03-26T05:28:48.897Z,8.38
2023-03-26T05:31:31.446Z,8.35
2023-03-26T05:34:00.818Z,8.35
2023-03-26T05:36:29.961Z,8.34
2023-03-26T05:39:25.865Z,8.31
2023-03-26T05:41:56.594Z,8.30
2023-03-26T05:44:29.866Z,8.30
2023-03-26T05:47:00.105Z,8.31
2023-03-26T05:49:28.593Z,8.33
2023-03-26T05:51:56.654Z,8.34
2023-03-26T05:54:35.889Z,8.35
2023-03-26T05:57:24.259Z,8.34
2023-03-26T06:00:12.309Z,8.33
2023-03-26T06:02:47.257Z,8.33
2023-03-26T06:05:40.155Z,8.28
2023-03-26T06:08:12.552Z,8.30
2023-03-26T06:10:41.634Z,8.33
2023-03-26T06:13:09.710Z,8.35
2023-03-26T06:15:40.945Z,8.38
2023-03-26T06:18:36.323Z,8.38
2023-03-26T06:21:33.704Z,8.37
2023-03-26T06:24:16.595Z,8.39
2023-03-26T06:27:16.742Z,8.38
2023-03-26T06:29:50.461Z,8.42
2023-03-26T06:32:38.866Z,8.47
2023-03-26T06:35:21.303Z,8.50
2023-03-26T06:37:49.625Z,8.56
2023-03-26T06:40:17.957Z,8.61
2023-03-26T06:43:07.934Z,8.64
2023-03-26T06:46:07.891Z,8.65
2023-03-26T06:48:40.934Z,8.69
2023-03-26T06:51:27.351Z,8.71
2023-03-26T06:54:14.246Z,8.69
2023-03-26T06:56:57.355Z,8.68
2023-03-26T06:59:41.936Z,8.65
2023-03-26T07:02:28.991Z,8.60
2023-03-26T07:05:16.191Z,8.53
2023-03-26T07:08:03.200Z,8.47
2023-03-26T07:10:49.790Z,8.42
2023-03-26T07:13:37.856Z,8.37
2023-03-26T07:16:24.257Z,8.31
2023-03-26T07:19:15.351Z,8.26
2023-03-26T07:21:44.375Z,8.26
2023-03-26T07:24:28.841Z,8.22
2023-03-26T07:27:08.848Z,8.19
2023-03-26T07:30:02.221Z,8.17
2023-03-26T07:32:58.470Z,8.12
2023-03-26T07:35:56.167Z,8.09
2023-03-26T07:39:14.862Z,8.09
2023-03-26T07:42:18.356Z,8.02
2023-03-26T07:45:41.983Z,8.05
2023-03-26T07:48:42.810Z,8.03
2023-03-26T07:51:34.603Z,8.02
2023-03-26T07:54:17.702Z,8.05
2023-03-26T07:57:34.031Z,8.08
2023-03-26T08:00:33.226Z,8.12
2023-03-26T08:03:02.221Z,8.15
2023-03-26T08:06:17.489Z,8.15
2023-03-26T08:09:29.161Z,8.17
2023-03-26T08:12:49.883Z,8.12
2023-03-26T08:15:32.933Z,8.07
2023-03-26T08:18:04.163Z,8.05
2023-03-26T08:20:41.671Z,8.06
2023-03-26T08:23:12.676Z,8.06
2023-03-26T08:26:25.463Z,8.07
2023-03-26T08:29:22.264Z,8.02
2023-03-26T08:31:50.926Z,8.00
2023-03-26T08:34:18.993Z,8.03
2023-03-26T08:36:46.965Z,8.05
2023-03-26T08:39:15.246Z,8.06
2023-03-26T08:42:01.156Z,8.09
2023-03-26T08:44:51.012Z,8.12
2023-03-26T08:47:28.020Z,8.13
2023-03-26T08:50:04.726Z,8.14
2023-03-26T08:53:08.733Z,8.17
2023-03-26T08:56:01.724Z,8.22
2023-03-26T08:59:02.357Z,8.31
2023-03-26T09:01:54.589Z,8.39
2023-03-26T09:04:35.466Z,8.48
2023-03-26T09:07:37.635Z,8.56
2023-03-26T09:10:27.004Z,8.61
2023-03-26T09:13:13.819Z,8.66
2023-03-26T09:15:41.788Z,8.72
2023-03-26T09:18:15.547Z,8.80
2023-03-26T09:20:58.844Z,8.85
2023-03-26T09:23:38.975Z,8.92
2023-03-26T09:26:36.270Z,8.99
2023-03-26T09:29:16.324Z,9.04
2023-03-26T09:32:09.543Z,9.11
2023-03-26T09:35:17.678Z,9.20
2023-03-26T09:38:12.344Z,9.26
2023-03-26T09:40:42.622Z,9.30
2023-03-26T09:43:26.918Z,9.38
2023-03-26T09:46:15.689Z,9.44
2023-03-26T09:48:54.100Z,9.46
2023-03-26T09:51:31.060Z,9.49
2023-03-26T09:54:48.654Z,9.49
2023-03-26T09:57:54.021Z,9.44
2023-03-26T10:00:22.258Z,9.38
2023-03-26T10:03:08.255Z,9.38
2023-03-26T10:05:42.732Z,9.36
2023-03-26T10:08:32.211Z,9.35
2023-03-26T10:11:34.259Z,9.34
2023-03-26T10:14:21.641Z,9.34
2023-03-26T10:17:25.906Z,9.42
2023-03-26T10:20:19.781Z,9.51
2023-03-26T10:23:27.301Z,9.63
2023-03-26T10:26:08.764Z,9.76
2023-03-26T10:29:18.193Z,9.92
2023-03-26T10:32:16.994Z,10.06
2023-03-26T10:35:05.717Z,10.22
2023-03-26T10:37:36.784Z,10.40
2023-03-26T10:40:14.587Z,10.55
2023-03-26T10:43:34.060Z,10.70
2023-03-26T10:46:32.911Z,10.76
2023-03-26T10:49:03.683Z,10.85
2023-03-26T10:51:54.584Z,10.92
2023-03-26T10:54:34.132Z,11.00
2023-03-26T10:57:20.936Z,11.03
2023-03-26T10:59:49.005Z,11.05
2023-03-26T11:02:31.015Z,11.08
2023-03-26T11:05:05.079Z,11.13
2023-03-26T11:07:50.850Z,11.20
2023-03-26T11:10:39.965Z,11.28
2023-03-26T11:13:19.508Z,11.34
2023-03-26T11:16:02.583Z,11.36
2023-03-26T11:18:30.599Z,11.39
2023-03-26T11:21:19.922Z,11.42
2023-03-26T11:24:17.840Z,11.39
2023-03-26T11:26:55.888Z,11.34
2023-03-26T11:29:33.791Z,11.35
2023-03-26T11:32:05.502Z,11.28
2023-03-26T11:35:02.925Z,11.21
2023-03-26T11:37:56.525Z,11.00
2023-03-26T11:40:40.158Z,10.78
2023-03-26T11:43:12.411Z,10.59
2023-03-26T11:45:45.122Z,10.42
2023-03-26T11:48:23.531Z,10.20
2023-03-26T11:51:02.702Z,10.01
2023-03-26T11:53:35.093Z,9.89
2023-03-26T11:56:05.285Z,9.85
2023-03-26T11:58:43.036Z,9.88
2023-03-26T12:01:30.113Z,9.96
2023-03-26T12:04:09.114Z,10.06
2023-03-26T12:06:37.215Z,10.18
2023-03-26T12:09:19.835Z,10.27
2023-03-26T12:11:52.749Z,10.37
2023-03-26T12:14:26.956Z,10.48
2023-03-26T12:17:18.380Z,10.59
2023-03-26T12:20:01.266Z,10.62
2023-03-26T12:22:32.349Z,10.70
2023-03-26T12:25:14.437Z,10.76
2023-03-26T12:27:49.005Z,10.78
2023-03-26T12:30:34.026Z,10.79
2023-03-26T12:33:06.026Z,10.79
2023-03-26T12:35:36.146Z,10.74
2023-03-26T12:38:14.841Z,10.68
2023-03-26T12:40:45.089Z,10.61
2023-03-26T12:44:48.006Z,10.65
2023-03-26T12:47:56.500Z,10.62
2023-03-26T12:49:22.415Z,10.62
2023-03-26T12:51:58.838Z,10.66
2023-03-26T12:54:48.612Z,10.66
2023-03-26T12:57:26.704Z,10.48
2023-03-26T13:00:14.037Z,10.32
2023-03-26T13:02:51.495Z,10.18
2023-03-26T13:05:38.149Z,10.11
2023-03-26T13:08:40.793Z,10.00
2023-03-26T13:11:21.047Z,9.92
2023-03-26T13:14:19.153Z,9.95
2023-03-26T13:17:10.168Z,9.99
2023-03-26T13:20:14.486Z,10.02
2023-03-26T13:22:47.668Z,10.02
2023-03-26T13:25:30.795Z,10.03
2023-03-26T13:28:01.627Z,10.04
2023-03-26T13:30:42.678Z,10.08
2023-03-26T13:33:19.684Z,10.11
2023-03-26T13:36:14.316Z,10.17
2023-03-26T13:39:15.020Z,10.18
2023-03-26T13:42:05.922Z,10.22
2023-03-26T13:45:05.050Z,10.26
2023-03-26T13:47:46.148Z,10.37
2023-03-26T13:50:23.185Z,10.50
2023-03-26T13:53:06.848Z,10.60
2023-03-26T13:55:43.897Z,10.64
2023-03-26T13:58:24.470Z,10.63
2023-03-26T14:01:02.158Z,10.53
2023-03-26T14:03:43.092Z,10.47
2023-03-26T14:06:23.284Z,10.43
2023-03-26T14:08:59.454Z,10.39
2023-03-26T14:11:51.670Z,10.35
2023-03-26T14:14:35.112Z,10.30
2023-03-26T14:17:25.327Z,10.27
2023-03-26T14:20:12.622Z,10.21
2023-03-26T14:23:06.391Z,10.13
2023-03-26T14:25:46.234Z,10.04
2023-03-26T14:28:53.936Z,9.97
2023-03-26T14:31:42.552Z,9.87
2023-03-26T14:34:49.935Z,9.79
2023-03-26T14:38:02.775Z,9.67
2023-03-26T14:40:48.697Z,9.53
2023-03-26T14:43:54.240Z,9.48
2023-03-26T14:46:25.529Z,9.44
2023-03-26T14:49:19.564Z,9.44
2023-03-26T14:52:27.550Z,9.35
2023-03-26T14:55:01.501Z,9.27
2023-03-26T14:57:51.158Z,9.27
2023-03-26T15:00:40.820Z,9.26
2023-03-26T15:03:48.798Z,9.23
2023-03-26T15:06:53.880Z,9.18
2023-03-26T15:10:05.372Z,9.15
2023-03-26T15:12:58.726Z,9.10
2023-03-26T15:16:05.507Z,9.10
2023-03-26T15:18:42.792Z,9.09
2023-03-26T15:21:38.739Z,9.13
2023-03-26T15:24:17.943Z,9.12
2023-03-26T15:27:08.563Z,9.12
2023-03-26T15:29:57.842Z,9.10
2023-03-26T15:32:58.321Z,9.09
2023-03-26T15:35:45.616Z,9.04
2023-03-26T15:38:39.741Z,9.03
2023-03-26T15:41:39.760Z,8.98
2023-03-26T15:44:53.245Z,8.93
2023-03-26T15:47:50.703Z,8.90
2023-03-26T15:50:31.215Z,8.90
2023-03-26T15:53:36.661Z,8.92
2023-03-26T15:56:11.683Z,8.87
2023-03-26T15:58:51.965Z,8.86
2023-03-26T16:01:34.075Z,8.79
2023-03-26T16:04:29.543Z,8.75
2023-03-26T16:07:21.975Z,8.70
2023-03-26T16:10:21.576Z,8.67
2023-03-26T16:13:17.679Z,8.66
2023-03-26T16:16:14.719Z,8.66
2023-03-26T16:18:48.469Z,8.65
2023-03-26T16:21:30.641Z,8.69
2023-03-26T16:24:03.376Z,8.72
2023-03-26T16:26:43.758Z,8.75
2023-03-26T16:29:14.601Z,8.75
2023-03-26T16:32:11.170Z,8.75
2023-03-26T16:34:59.764Z,8.69
2023-03-26T16:37:36.713Z,8.66
2023-03-26T16:40:17.002Z,8.67
2023-03-26T16:42:56.550Z,8.64
2023-03-26T16:45:47.369Z,8.60
2023-03-26T16:48:34.151Z,8.57
2023-03-26T16:51:30.688Z,8.52
2023-03-26T16:54:37.959Z,8.41
2023-03-26T16:57:43.528Z,8.34
2023-03-26T17:00:24.471Z,8.34
2023-03-26T17:03:01.523Z,8.36
2023-03-26T17:05:37.765Z,8.39
2023-03-26T17:08:14.926Z,8.41
2023-03-26T17:11:19.371Z,8.44
2023-03-26T17:14:01.244Z,8.40
2023-03-26T17:16:47.642Z,8.36
2023-03-26T17:19:41.993Z,8.28
2023-03-26T17:22:42.253Z,8.21
2023-03-26T17:25:42.578Z,8.18
2023-03-26T17:28:35.665Z,8.19
2023-03-26T17:31:26.735Z,8.21
2023-03-26T17:33:55.400Z,8.22
2023-03-26T17:36:43.161Z,8.25
2023-03-26T17:39:40.658Z,8.25
2023-03-26T17:42:33.072Z,8.23
2023-03-26T17:45:04.009Z,8.21
2023-03-26T17:47:54.158Z,8.18
2023-03-26T17:50:31.907Z,8.06
2023-03-26T17:53:31.261Z,8.04
2023-03-26T17:56:04.028Z,7.99
2023-03-26T17:58:50.893Z,7.99
2023-03-26T18:01:36.193Z,7.96
2023-03-26T18:04:08.288Z,7.92
2023-03-26T18:06:45.828Z,7.89
2023-03-26T18:09:33.006Z,7.84
2023-03-26T18:12:38.595Z,7.78
2023-03-26T18:15:27.883Z,7.69
2023-03-26T18:18:16.711Z,7.63
2023-03-26T18:20:47.296Z,7.57
2023-03-26T18:23:26.477Z,7.53
2023-03-26T18:26:16.933Z,7.50
2023-03-26T18:29:12.680Z,7.45
2023-03-26T18:31:44.286Z,7.38
2023-03-26T18:34:19.069Z,7.35
2023-03-26T18:37:01.200Z,7.31
2023-03-26T18:39:29.345Z,7.25
2023-03-26T18:41:58.424Z,7.20
2023-03-26T18:44:27.637Z,7.17
2023-03-26T18:46:56.623Z,7.13
2023-03-26T18:49:27.446Z,7.08
2023-03-26T18:51:57.582Z,7.05
2023-03-26T18:54:34.352Z,6.98
2023-03-26T18:57:16.015Z,6.91
2023-03-26T18:59:45.667Z,6.83
2023-03-26T19:02:16.527Z,6.77
2023-03-26T19:04:47.143Z,6.72
2023-03-26T19:07:26.043Z,6.65
2023-03-26T19:09:56.325Z,6.59
2023-03-26T19:12:33.254Z,6.55
2023-03-26T19:15:08.094Z,6.52
2023-03-26T19:17:46.155Z,6.47
2023-03-26T19:20:24.313Z,6.42
2023-03-26T19:22:53.384Z,6.35
2023-03-26T19:25:25.541Z,6.31
2023-03-26T19:27:53.995Z,6.27
2023-03-26T19:30:32.840Z,6.21
2023-03-26T19:33:13.945Z,6.11
2023-03-26T19:35:43.655Z,6.04
2023-03-26T19:38:29.729Z,6.00
2023-03-26T19:40:59.062Z,5.95
2023-03-26T19:43:27.730Z,5.91
2023-03-26T19:46:01.093Z,5.87
2023-03-26T19:48:45.661Z,5.82
2023-03-26T19:51:31.731Z,5.77
2023-03-26T19:54:12.725Z,5.70
2023-03-26T19:56:40.795Z,5.65
2023-03-26T19:59:08.969Z,5.62
2023-03-26T20:01:37.594Z,5.60
2023-03-26T20:04:10.127Z,5.58
2023-03-26T20:09:28.571Z,5.47
2023-03-26T20:11:56.565Z,5.43
2023-03-26T20:14:26.710Z,5.39
2023-03-26T20:16:55.237Z,5.36
2023-03-26T20:19:24.073Z,5.32
2023-03-26T20:21:52.910Z,5.28
2023-03-26T20:24:21.731Z,5.25
2023-03-26T20:26:49.915Z,5.21
2023-03-26T20:29:19.302Z,5.18
2023-03-26T20:31:48.655Z,5.14
2023-03-26T20:34:24.467Z,5.09
2023-03-26T20:36:55.616Z,5.04
2023-03-26T20:39:25.307Z,5.00
2023-03-26T20:41:54.925Z,4.97
2023-03-26T20:44:23.353Z,4.94
2023-03-26T20:46:51.793Z,4.90
2023-03-26T20:49:22.340Z,4.86
2023-03-26T20:51:50.567Z,4.82
2023-03-26T20:54:22.029Z,4.78
2023-03-26T20:56:50.755Z,4.73
2023-03-26T20:59:27.008Z,4.69
2023-03-26T21:01:57.952Z,4.64
2023-03-26T21:04:26.601Z,4.60
2023-03-26T21:07:00.605Z,4.58
2023-03-26T21:09:36.138Z,4.54
2023-03-26T21:12:21.831Z,4.52
2023-03-26T21:14:50.312Z,4.47
2023-03-26T21:17:21.134Z,4.43
2023-03-26T21:19:50.190Z,4.40
2023-03-26T21:22:34.483Z,4.38
2023-03-26T21:25:22.116Z,4.34
2023-03-26T21:28:06.260Z,4.29
2023-03-26T21:30:35.110Z,4.25
2023-03-26T21:33:05.492Z,4.23
2023-03-26T21:35:35.132Z,4.20
2023-03-26T21:38:09.502Z,4.19
2023-03-26T21:40:40.592Z,4.16
2023-03-26T21:43:13.550Z,4.15
2023-03-26T21:45:43.194Z,4.13
2023-03-26T21:48:12.468Z,4.12
2023-03-26T21:50:41.159Z,4.10
2023-03-26T21:53:15.639Z,4.05
2023-03-26T21:55:58.665Z,4.00
2023-03-26T21:58:44.518Z,3.93
2023-03-26T22:01:18.389Z,3.87
2023-03-26T22:04:02.201Z,3.84
2023-03-26T22:06:42.885Z,3.77
2023-03-26T22:09:15.043Z,3.71
2023-03-26T22:11:44.745Z,3.67
2023-03-26T22:14:13.569Z,3.64
2023-03-26T22:16:41.748Z,3.60
2023-03-26T22:19:11.102Z,3.53
2023-03-26T22:21:39.584Z,3.47
2023-03-26T22:24:08.774Z,3.41
2023-03-26T22:26:37.726Z,3.35
2023-03-26T22:29:05.947Z,3.32
2023-03-26T22:31:34.930Z,3.30
2023-03-26T22:34:03.314Z,3.27
2023-03-26T22:36:32.409Z,3.26
2023-03-26T22:39:00.955Z,3.25
2023-03-26T22:41:31.996Z,3.22
2023-03-26T22:44:09.321Z,3.20
2023-03-26T22:46:49.417Z,3.15
2023-03-26T22:49:18.275Z,3.13
2023-03-26T22:51:46.859Z,3.12
2023-03-26T22:54:14.867Z,3.10
2023-03-26T22:56:43.745Z,3.08
2023-03-26T22:59:11.883Z,3.05
2023-03-26T23:01:40.023Z,3.02
2023-03-26T23:04:08.535Z,2.99
2023-03-26T23:06:36.700Z,2.97
2023-03-26T23:09:07.240Z,2.90
2023-03-26T23:11:35.406Z,2.83
2023-03-26T23:14:03.465Z,2.80
2023-03-26T23:16:31.928Z,2.78
2023-03-26T23:19:00.120Z,2.75
2023-03-26T23:21:28.101Z,2.73
2023-03-26T23:23:56.059Z,2.70
2023-03-26T23:26:24.582Z,2.67
2023-03-26T23:28:52.715Z,2.65
2023-03-26T23:31:20.742Z,2.62
2023-03-26T23:33:50.553Z,2.61
2023-03-26T23:36:20.507Z,2.60
2023-03-26T23:38:49.256Z,2.61
2023-03-26T23:41:21.816Z,2.61
2023-03-26T23:43:53.585Z,2.60
2023-03-26T23:46:25.761Z,2.57
2023-03-26T23:48:55.146Z,2.58
2023-03-26T23:51:24.268Z,2.60
2023-03-26T23:53:52.885Z,2.65
2023-03-26T23:56:21.352Z,2.68
2023-03-26T23:58:49.636Z,2.74
